sensor_id;sensor_type;location;lat;lon;timestamp;P1;durP1;ratioP1;P2;durP2;ratioP2
26540;SDS011;14206;50.202;10.948;2022-09-14T00:01:23;1.90;;;1.80;;
26540;SDS011;14206;50.202;10.948;2022-09-14T00:03:59;1.65;;;1.55;;
26540;SDS011;14206;50.202;10.948;2022-09-14T00:06:31;1.90;;;1.70;;
26540;SDS011;14206;50.202;10.948;2022-09-14T00:08:58;2.22;;;1.73;;
26540;SDS011;14206;50.202;10.948;2022-09-14T00:11:27;2.10;;;1.70;;
26540;SDS011;14206;50.202;10.948;2022-09-14T00:13:56;3.10;;;1.60;;
26540;SDS011;14206;50.202;10.948;2022-09-14T00:16:28;2.00;;;1.70;;
26540;SDS011;14206;50.202;10.948;2022-09-14T00:18:58;1.60;;;1.50;;
26540;SDS011;14206;50.202;10.948;2022-09-14T00:21:31;1.83;;;1.50;;
26540;SDS011;14206;50.202;10.948;2022-09-14T00:23:59;1.67;;;1.58;;
26540;SDS011;14206;50.202;10.948;2022-09-14T00:26:26;1.63;;;1.52;;
26540;SDS011;14206;50.202;10.948;2022-09-14T00:28:55;1.60;;;1.50;;
26540;SDS011;14206;50.202;10.948;2022-09-14T00:31:23;1.70;;;1.50;;
26540;SDS011;14206;50.202;10.948;2022-09-14T00:33:51;2.33;;;1.77;;
26540;SDS011;14206;50.202;10.948;2022-09-14T00:36:20;2.97;;;1.65;;
26540;SDS011;14206;50.202;10.948;2022-09-14T00:38:49;2.20;;;1.73;;
26540;SDS011;14206;50.202;10.948;2022-09-14T00:41:18;2.10;;;1.90;;
26540;SDS011;14206;50.202;10.948;2022-09-14T00:43:54;2.25;;;1.73;;
26540;SDS011;14206;50.202;10.948;2022-09-14T00:46:24;1.80;;;1.70;;
26540;SDS011;14206;50.202;10.948;2022-09-14T00:48:52;1.92;;;1.83;;
26540;SDS011;14206;50.202;10.948;2022-09-14T00:51:19;3.17;;;2.00;;
26540;SDS011;14206;50.202;10.948;2022-09-14T00:53:47;1.90;;;1.80;;
26540;SDS011;14206;50.202;10.948;2022-09-14T00:56:15;2.17;;;1.98;;
26540;SDS011;14206;50.202;10.948;2022-09-14T00:58:42;2.30;;;2.10;;
26540;SDS011;14206;50.202;10.948;2022-09-14T01:01:11;2.05;;;1.85;;
26540;SDS011;14206;50.202;10.948;2022-09-14T01:03:38;2.20;;;2.00;;
26540;SDS011;14206;50.202;10.948;2022-09-14T01:11:38;2.20;;;2.00;;
26540;SDS011;14206;50.202;10.948;2022-09-14T01:17:11;2.08;;;1.90;;
26540;SDS011;14206;50.202;10.948;2022-09-14T01:22:32;2.35;;;1.98;;
26540;SDS011;14206;50.202;10.948;2022-09-14T01:25:17;2.05;;;1.80;;
26540;SDS011;14206;50.202;10.948;2022-09-14T01:28:14;2.20;;;2.00;;
26540;SDS011;14206;50.202;10.948;2022-09-14T01:30:48;2.15;;;1.95;;
26540;SDS011;14206;50.202;10.948;2022-09-14T01:33:24;2.67;;;1.77;;
26540;SDS011;14206;50.202;10.948;2022-09-14T01:35:56;1.98;;;1.88;;
26540;SDS011;14206;50.202;10.948;2022-09-14T01:38:29;1.95;;;1.85;;
26540;SDS011;14206;50.202;10.948;2022-09-14T01:41:00;2.13;;;1.95;;
26540;SDS011;14206;50.202;10.948;2022-09-14T01:43:33;2.00;;;1.90;;
26540;SDS011;14206;50.202;10.948;2022-09-14T01:46:04;3.22;;;2.08;;
26540;SDS011;14206;50.202;10.948;2022-09-14T01:48:36;2.35;;;2.15;;
26540;SDS011;14206;50.202;10.948;2022-09-14T01:51:11;2.35;;;2.15;;
26540;SDS011;14206;50.202;10.948;2022-09-14T01:53:46;2.63;;;2.13;;
26540;SDS011;14206;50.202;10.948;2022-09-14T01:56:26;2.58;;;2.38;;
26540;SDS011;14206;50.202;10.948;2022-09-14T02:01:51;2.85;;;2.65;;
26540;SDS011;14206;50.202;10.948;2022-09-14T02:07:12;2.30;;;2.10;;
26540;SDS011;14206;50.202;10.948;2022-09-14T02:09:40;2.50;;;2.30;;
26540;SDS011;14206;50.202;10.948;2022-09-14T02:12:08;2.30;;;2.10;;
26540;SDS011;14206;50.202;10.948;2022-09-14T02:14:35;2.22;;;2.03;;
26540;SDS011;14206;50.202;10.948;2022-09-14T02:17:02;3.03;;;2.25;;
26540;SDS011;14206;50.202;10.948;2022-09-14T02:19:30;2.85;;;2.50;;
26540;SDS011;14206;50.202;10.948;2022-09-14T02:22:00;2.50;;;2.30;;
26540;SDS011;14206;50.202;10.948;2022-09-14T02:24:27;2.20;;;2.05;;
26540;SDS011;14206;50.202;10.948;2022-09-14T02:26:54;2.40;;;2.20;;
26540;SDS011;14206;50.202;10.948;2022-09-14T02:29:23;2.50;;;2.20;;
26540;SDS011;14206;50.202;10.948;2022-09-14T02:37:17;2.33;;;2.13;;
26540;SDS011;14206;50.202;10.948;2022-09-14T02:42:40;2.13;;;1.95;;
26540;SDS011;14206;50.202;10.948;2022-09-14T02:53:46;2.60;;;2.40;;
26540;SDS011;14206;50.202;10.948;2022-09-14T02:56:29;2.42;;;2.22;;
26540;SDS011;14206;50.202;10.948;2022-09-14T02:58:58;2.55;;;2.35;;
26540;SDS011;14206;50.202;10.948;2022-09-14T03:01:24;2.40;;;2.20;;
26540;SDS011;14206;50.202;10.948;2022-09-14T03:03:53;2.40;;;2.20;;
26540;SDS011;14206;50.202;10.948;2022-09-14T03:06:20;2.50;;;2.30;;
26540;SDS011;14206;50.202;10.948;2022-09-14T03:08:47;2.33;;;2.13;;
26540;SDS011;14206;50.202;10.948;2022-09-14T03:11:14;2.17;;;1.98;;
26540;SDS011;14206;50.202;10.948;2022-09-14T03:13:41;2.60;;;2.40;;
26540;SDS011;14206;50.202;10.948;2022-09-14T03:16:10;2.72;;;2.25;;
26540;SDS011;14206;50.202;10.948;2022-09-14T03:18:38;2.80;;;2.05;;
26540;SDS011;14206;50.202;10.948;2022-09-14T03:21:07;2.50;;;2.30;;
26540;SDS011;14206;50.202;10.948;2022-09-14T03:23:37;2.40;;;2.20;;
26540;SDS011;14206;50.202;10.948;2022-09-14T03:26:06;2.30;;;2.10;;
26540;SDS011;14206;50.202;10.948;2022-09-14T03:28:33;3.03;;;2.35;;
26540;SDS011;14206;50.202;10.948;2022-09-14T03:31:01;2.35;;;2.15;;
26540;SDS011;14206;50.202;10.948;2022-09-14T03:33:29;2.22;;;2.03;;
26540;SDS011;14206;50.202;10.948;2022-09-14T03:35:56;3.22;;;2.30;;
26540;SDS011;14206;50.202;10.948;2022-09-14T03:38:23;2.80;;;2.30;;
26540;SDS011;14206;50.202;10.948;2022-09-14T03:40:55;2.50;;;2.30;;
26540;SDS011;14206;50.202;10.948;2022-09-14T03:43:25;2.40;;;2.20;;
26540;SDS011;14206;50.202;10.948;2022-09-14T03:45:52;2.47;;;2.22;;
26540;SDS011;14206;50.202;10.948;2022-09-14T03:48:19;2.22;;;2.03;;
26540;SDS011;14206;50.202;10.948;2022-09-14T03:50:47;3.05;;;2.47;;
26540;SDS011;14206;50.202;10.948;2022-09-14T03:53:14;2.47;;;2.28;;
26540;SDS011;14206;50.202;10.948;2022-09-14T03:55:40;3.25;;;2.40;;
26540;SDS011;14206;50.202;10.948;2022-09-14T03:58:07;2.40;;;2.20;;
26540;SDS011;14206;50.202;10.948;2022-09-14T04:00:34;2.50;;;2.30;;
26540;SDS011;14206;50.202;10.948;2022-09-14T04:03:01;2.50;;;2.30;;
26540;SDS011;14206;50.202;10.948;2022-09-14T04:05:29;2.63;;;2.42;;
26540;SDS011;14206;50.202;10.948;2022-09-14T04:07:56;2.97;;;2.45;;
26540;SDS011;14206;50.202;10.948;2022-09-14T04:10:22;2.38;;;2.17;;
26540;SDS011;14206;50.202;10.948;2022-09-14T04:12:49;2.47;;;2.28;;
26540;SDS011;14206;50.202;10.948;2022-09-14T04:15:16;3.05;;;2.25;;
26540;SDS011;14206;50.202;10.948;2022-09-14T04:17:43;2.38;;;2.17;;
26540;SDS011;14206;50.202;10.948;2022-09-14T04:20:10;2.60;;;2.33;;
26540;SDS011;14206;50.202;10.948;2022-09-14T04:22:37;2.63;;;2.17;;
26540;SDS011;14206;50.202;10.948;2022-09-14T04:25:04;2.45;;;2.25;;
26540;SDS011;14206;50.202;10.948;2022-09-14T04:27:31;2.30;;;2.10;;
26540;SDS011;14206;50.202;10.948;2022-09-14T04:29:58;3.28;;;2.55;;
26540;SDS011;14206;50.202;10.948;2022-09-14T04:32:25;2.58;;;2.38;;
26540;SDS011;14206;50.202;10.948;2022-09-14T04:34:58;2.53;;;2.33;;
26540;SDS011;14206;50.202;10.948;2022-09-14T04:37:26;2.60;;;2.40;;
26540;SDS011;14206;50.202;10.948;2022-09-14T04:39:56;3.40;;;2.58;;
26540;SDS011;14206;50.202;10.948;2022-09-14T04:42:23;2.97;;;2.50;;
26540;SDS011;14206;50.202;10.948;2022-09-14T04:44:50;3.30;;;2.70;;
26540;SDS011;14206;50.202;10.948;2022-09-14T04:47:16;3.20;;;2.90;;
26540;SDS011;14206;50.202;10.948;2022-09-14T04:49:43;2.83;;;2.60;;
26540;SDS011;14206;50.202;10.948;2022-09-14T04:52:10;2.92;;;2.60;;
26540;SDS011;14206;50.202;10.948;2022-09-14T04:54:37;3.17;;;2.83;;
26540;SDS011;14206;50.202;10.948;2022-09-14T04:57:03;3.00;;;2.70;;
26540;SDS011;14206;50.202;10.948;2022-09-14T04:59:30;3.55;;;2.60;;
26540;SDS011;14206;50.202;10.948;2022-09-14T05:01:57;2.63;;;2.42;;
26540;SDS011;14206;50.202;10.948;2022-09-14T05:04:24;2.95;;;2.75;;
26540;SDS011;14206;50.202;10.948;2022-09-14T05:06:51;2.60;;;2.40;;
26540;SDS011;14206;50.202;10.948;2022-09-14T05:09:18;3.10;;;2.80;;
26540;SDS011;14206;50.202;10.948;2022-09-14T05:11:45;3.15;;;2.85;;
26540;SDS011;14206;50.202;10.948;2022-09-14T05:14:12;3.10;;;2.80;;
26540;SDS011;14206;50.202;10.948;2022-09-14T05:16:40;3.20;;;2.90;;
26540;SDS011;14206;50.202;10.948;2022-09-14T05:19:10;2.90;;;2.65;;
26540;SDS011;14206;50.202;10.948;2022-09-14T05:21:39;3.03;;;2.72;;
26540;SDS011;14206;50.202;10.948;2022-09-14T05:24:08;2.83;;;2.60;;
26540;SDS011;14206;50.202;10.948;2022-09-14T05:26:38;2.85;;;2.60;;
26540;SDS011;14206;50.202;10.948;2022-09-14T05:29:04;2.58;;;2.38;;
26540;SDS011;14206;50.202;10.948;2022-09-14T05:31:32;3.20;;;2.55;;
26540;SDS011;14206;50.202;10.948;2022-09-14T05:33:59;2.45;;;2.22;;
26540;SDS011;14206;50.202;10.948;2022-09-14T05:36:26;2.85;;;2.58;;
26540;SDS011;14206;50.202;10.948;2022-09-14T05:38:53;2.55;;;2.35;;
26540;SDS011;14206;50.202;10.948;2022-09-14T05:41:20;2.92;;;2.63;;
26540;SDS011;14206;50.202;10.948;2022-09-14T05:43:47;2.47;;;2.28;;
26540;SDS011;14206;50.202;10.948;2022-09-14T05:46:15;3.00;;;2.70;;
26540;SDS011;14206;50.202;10.948;2022-09-14T05:48:45;3.33;;;2.75;;
26540;SDS011;14206;50.202;10.948;2022-09-14T05:51:14;3.90;;;2.47;;
26540;SDS011;14206;50.202;10.948;2022-09-14T05:53:45;3.00;;;2.70;;
26540;SDS011;14206;50.202;10.948;2022-09-14T05:56:21;2.78;;;2.58;;
26540;SDS011;14206;50.202;10.948;2022-09-14T05:58:48;3.17;;;2.80;;
26540;SDS011;14206;50.202;10.948;2022-09-14T06:01:17;3.10;;;2.63;;
26540;SDS011;14206;50.202;10.948;2022-09-14T06:03:46;2.88;;;2.42;;
26540;SDS011;14206;50.202;10.948;2022-09-14T06:06:15;2.67;;;2.47;;
26540;SDS011;14206;50.202;10.948;2022-09-14T06:08:44;2.50;;;2.30;;
26540;SDS011;14206;50.202;10.948;2022-09-14T06:11:12;2.92;;;2.70;;
26540;SDS011;14206;50.202;10.948;2022-09-14T06:13:41;2.60;;;2.40;;
26540;SDS011;14206;50.202;10.948;2022-09-14T06:16:12;2.55;;;2.35;;
26540;SDS011;14206;50.202;10.948;2022-09-14T06:18:40;2.78;;;2.58;;
26540;SDS011;14206;50.202;10.948;2022-09-14T06:21:09;2.75;;;2.55;;
26540;SDS011;14206;50.202;10.948;2022-09-14T06:23:40;2.63;;;2.40;;
26540;SDS011;14206;50.202;10.948;2022-09-14T06:26:07;2.83;;;2.63;;
26540;SDS011;14206;50.202;10.948;2022-09-14T06:28:34;2.80;;;2.50;;
26540;SDS011;14206;50.202;10.948;2022-09-14T06:31:01;3.15;;;2.88;;
26540;SDS011;14206;50.202;10.948;2022-09-14T06:33:30;3.38;;;2.63;;
26540;SDS011;14206;50.202;10.948;2022-09-14T06:36:05;3.10;;;2.80;;
26540;SDS011;14206;50.202;10.948;2022-09-14T06:38:34;2.88;;;2.67;;
26540;SDS011;14206;50.202;10.948;2022-09-14T06:41:02;2.90;;;2.70;;
26540;SDS011;14206;50.202;10.948;2022-09-14T06:43:31;4.40;;;3.40;;
26540;SDS011;14206;50.202;10.948;2022-09-14T06:46:01;4.05;;;3.65;;
26540;SDS011;14206;50.202;10.948;2022-09-14T06:48:30;3.45;;;3.08;;
26540;SDS011;14206;50.202;10.948;2022-09-14T06:50:59;2.90;;;2.65;;
26540;SDS011;14206;50.202;10.948;2022-09-14T06:53:35;3.13;;;2.83;;
26540;SDS011;14206;50.202;10.948;2022-09-14T06:56:02;3.00;;;2.78;;
26540;SDS011;14206;50.202;10.948;2022-09-14T06:58:31;2.83;;;2.63;;
26540;SDS011;14206;50.202;10.948;2022-09-14T07:01:05;3.15;;;2.85;;
26540;SDS011;14206;50.202;10.948;2022-09-14T07:03:35;3.30;;;3.00;;
26540;SDS011;14206;50.202;10.948;2022-09-14T07:06:04;3.40;;;3.10;;
26540;SDS011;14206;50.202;10.948;2022-09-14T07:08:36;3.33;;;3.03;;
26540;SDS011;14206;50.202;10.948;2022-09-14T07:11:04;3.15;;;2.85;;
26540;SDS011;14206;50.202;10.948;2022-09-14T07:13:32;2.78;;;2.58;;
26540;SDS011;14206;50.202;10.948;2022-09-14T07:15:59;3.10;;;2.80;;
26540;SDS011;14206;50.202;10.948;2022-09-14T07:18:28;3.28;;;2.97;;
26540;SDS011;14206;50.202;10.948;2022-09-14T07:23:31;3.55;;;3.10;;
26540;SDS011;14206;50.202;10.948;2022-09-14T07:26:03;3.53;;;2.83;;
26540;SDS011;14206;50.202;10.948;2022-09-14T07:28:31;3.20;;;2.90;;
26540;SDS011;14206;50.202;10.948;2022-09-14T07:30:58;3.28;;;3.03;;
26540;SDS011;14206;50.202;10.948;2022-09-14T07:33:26;3.40;;;3.10;;
26540;SDS011;14206;50.202;10.948;2022-09-14T07:35:53;3.17;;;2.88;;
26540;SDS011;14206;50.202;10.948;2022-09-14T07:38:20;2.78;;;2.58;;
26540;SDS011;14206;50.202;10.948;2022-09-14T07:41:07;3.05;;;2.75;;
26540;SDS011;14206;50.202;10.948;2022-09-14T07:43:34;2.95;;;2.65;;
26540;SDS011;14206;50.202;10.948;2022-09-14T07:46:01;2.92;;;2.72;;
26540;SDS011;14206;50.202;10.948;2022-09-14T07:48:30;3.35;;;2.85;;
26540;SDS011;14206;50.202;10.948;2022-09-14T07:50:59;2.63;;;2.42;;
26540;SDS011;14206;50.202;10.948;2022-09-14T07:53:26;3.80;;;2.50;;
26540;SDS011;14206;50.202;10.948;2022-09-14T07:55:56;2.75;;;2.55;;
26540;SDS011;14206;50.202;10.948;2022-09-14T07:58:26;2.95;;;2.50;;
26540;SDS011;14206;50.202;10.948;2022-09-14T08:01:00;2.78;;;2.58;;
26540;SDS011;14206;50.202;10.948;2022-09-14T08:03:29;2.60;;;2.40;;
26540;SDS011;14206;50.202;10.948;2022-09-14T08:06:00;2.58;;;2.38;;
26540;SDS011;14206;50.202;10.948;2022-09-14T08:08:29;3.67;;;2.78;;
26540;SDS011;14206;50.202;10.948;2022-09-14T08:11:02;3.50;;;2.65;;
26540;SDS011;14206;50.202;10.948;2022-09-14T08:13:31;3.03;;;2.72;;
26540;SDS011;14206;50.202;10.948;2022-09-14T08:15:59;3.00;;;2.70;;
26540;SDS011;14206;50.202;10.948;2022-09-14T08:18:27;2.70;;;2.50;;
26540;SDS011;14206;50.202;10.948;2022-09-14T08:20:55;2.83;;;2.60;;
26540;SDS011;14206;50.202;10.948;2022-09-14T08:23:22;2.75;;;2.50;;
26540;SDS011;14206;50.202;10.948;2022-09-14T08:25:50;2.53;;;2.25;;
26540;SDS011;14206;50.202;10.948;2022-09-14T08:28:18;2.58;;;2.38;;
26540;SDS011;14206;50.202;10.948;2022-09-14T08:30:45;3.17;;;2.50;;
26540;SDS011;14206;50.202;10.948;2022-09-14T08:33:12;3.35;;;2.45;;
26540;SDS011;14206;50.202;10.948;2022-09-14T08:35:42;3.05;;;2.70;;
26540;SDS011;14206;50.202;10.948;2022-09-14T08:38:23;2.70;;;2.47;;
26540;SDS011;14206;50.202;10.948;2022-09-14T08:40:50;2.70;;;2.50;;
26540;SDS011;14206;50.202;10.948;2022-09-14T08:43:17;2.63;;;2.42;;
26540;SDS011;14206;50.202;10.948;2022-09-14T08:45:46;2.63;;;2.30;;
26540;SDS011;14206;50.202;10.948;2022-09-14T08:48:19;2.25;;;2.05;;
26540;SDS011;14206;50.202;10.948;2022-09-14T08:50:54;2.50;;;2.30;;
26540;SDS011;14206;50.202;10.948;2022-09-14T08:53:21;2.60;;;2.40;;
26540;SDS011;14206;50.202;10.948;2022-09-14T08:55:56;2.20;;;2.00;;
26540;SDS011;14206;50.202;10.948;2022-09-14T08:58:31;2.55;;;2.35;;
26540;SDS011;14206;50.202;10.948;2022-09-14T09:09:53;2.45;;;1.95;;
26540;SDS011;14206;50.202;10.948;2022-09-14T09:12:35;2.40;;;2.20;;
26540;SDS011;14206;50.202;10.948;2022-09-14T09:15:04;2.40;;;2.20;;
26540;SDS011;14206;50.202;10.948;2022-09-14T09:18:10;2.20;;;2.00;;
26540;SDS011;14206;50.202;10.948;2022-09-14T09:20:45;2.75;;;2.55;;
26540;SDS011;14206;50.202;10.948;2022-09-14T09:23:21;2.50;;;2.30;;
26540;SDS011;14206;50.202;10.948;2022-09-14T09:28:26;2.33;;;2.13;;
26540;SDS011;14206;50.202;10.948;2022-09-14T09:30:55;1.98;;;1.70;;
26540;SDS011;14206;50.202;10.948;2022-09-14T09:33:39;2.53;;;2.13;;
26540;SDS011;14206;50.202;10.948;2022-09-14T09:36:14;2.20;;;2.00;;
26540;SDS011;14206;50.202;10.948;2022-09-14T09:38:41;2.78;;;1.83;;
26540;SDS011;14206;50.202;10.948;2022-09-14T09:43:55;2.17;;;1.92;;
26540;SDS011;14206;50.202;10.948;2022-09-14T09:46:22;1.80;;;1.70;;
26540;SDS011;14206;50.202;10.948;2022-09-14T09:48:50;2.35;;;1.90;;
26540;SDS011;14206;50.202;10.948;2022-09-14T09:56:19;3.15;;;2.85;;
26540;SDS011;14206;50.202;10.948;2022-09-14T09:58:54;2.88;;;2.63;;
26540;SDS011;14206;50.202;10.948;2022-09-14T10:01:25;2.40;;;2.20;;
26540;SDS011;14206;50.202;10.948;2022-09-14T10:06:39;2.40;;;2.20;;
26540;SDS011;14206;50.202;10.948;2022-09-14T10:09:15;1.90;;;1.80;;
26540;SDS011;14206;50.202;10.948;2022-09-14T10:11:44;2.42;;;2.22;;
26540;SDS011;14206;50.202;10.948;2022-09-14T10:14:23;2.10;;;1.90;;
26540;SDS011;14206;50.202;10.948;2022-09-14T10:19:50;1.83;;;1.73;;
26540;SDS011;14206;50.202;10.948;2022-09-14T10:24:57;2.70;;;1.88;;
26540;SDS011;14206;50.202;10.948;2022-09-14T10:30:22;1.90;;;1.80;;
26540;SDS011;14206;50.202;10.948;2022-09-14T10:39:02;2.75;;;2.20;;
26540;SDS011;14206;50.202;10.948;2022-09-14T10:46:19;2.83;;;2.35;;
26540;SDS011;14206;50.202;10.948;2022-09-14T10:51:46;2.47;;;2.28;;
26540;SDS011;14206;50.202;10.948;2022-09-14T11:00:07;3.75;;;3.45;;
26540;SDS011;14206;50.202;10.948;2022-09-14T11:02:43;4.00;;;3.60;;
26540;SDS011;14206;50.202;10.948;2022-09-14T11:05:23;3.60;;;2.95;;
26540;SDS011;14206;50.202;10.948;2022-09-14T11:19:06;3.97;;;3.60;;
26540;SDS011;14206;50.202;10.948;2022-09-14T11:27:01;5.88;;;5.13;;
26540;SDS011;14206;50.202;10.948;2022-09-14T11:29:35;5.07;;;3.83;;
26540;SDS011;14206;50.202;10.948;2022-09-14T11:32:08;5.07;;;4.57;;
26540;SDS011;14206;50.202;10.948;2022-09-14T11:34:52;5.95;;;5.35;;
26540;SDS011;14206;50.202;10.948;2022-09-14T11:37:31;6.18;;;5.38;;
26540;SDS011;14206;50.202;10.948;2022-09-14T11:42:37;6.22;;;5.63;;
26540;SDS011;14206;50.202;10.948;2022-09-14T11:45:21;5.28;;;4.70;;
26540;SDS011;14206;50.202;10.948;2022-09-14T11:48:01;4.80;;;4.40;;
26540;SDS011;14206;50.202;10.948;2022-09-14T11:53:22;5.68;;;5.07;;
26540;SDS011;14206;50.202;10.948;2022-09-14T11:55:51;6.28;;;5.68;;
26540;SDS011;14206;50.202;10.948;2022-09-14T11:58:22;4.78;;;4.28;;
26540;SDS011;14206;50.202;10.948;2022-09-14T12:03:43;4.60;;;4.20;;
26540;SDS011;14206;50.202;10.948;2022-09-14T12:11:49;4.43;;;4.03;;
26540;SDS011;14206;50.202;10.948;2022-09-14T12:14:25;4.72;;;4.32;;
26540;SDS011;14206;50.202;10.948;2022-09-14T12:23:56;4.50;;;4.10;;
26540;SDS011;14206;50.202;10.948;2022-09-14T12:25:56;3.53;;;3.22;;
26540;SDS011;14206;50.202;10.948;2022-09-14T12:51:13;3.42;;;3.13;;
26540;SDS011;14206;50.202;10.948;2022-09-14T13:01:53;2.83;;;2.63;;
26540;SDS011;14206;50.202;10.948;2022-09-14T13:04:28;4.38;;;3.97;;
26540;SDS011;14206;50.202;10.948;2022-09-14T13:07:00;3.90;;;3.60;;
26540;SDS011;14206;50.202;10.948;2022-09-14T13:09:31;4.43;;;3.85;;
26540;SDS011;14206;50.202;10.948;2022-09-14T13:12:01;4.03;;;3.60;;
26540;SDS011;14206;50.202;10.948;2022-09-14T13:14:34;4.88;;;3.95;;
26540;SDS011;14206;50.202;10.948;2022-09-14T13:17:11;4.85;;;4.35;;
26540;SDS011;14206;50.202;10.948;2022-09-14T13:19:40;5.07;;;3.80;;
26540;SDS011;14206;50.202;10.948;2022-09-14T13:22:18;4.05;;;3.65;;
26540;SDS011;14206;50.202;10.948;2022-09-14T13:24:47;4.30;;;3.42;;
26540;SDS011;14206;50.202;10.948;2022-09-14T13:32:33;4.40;;;4.00;;
26540;SDS011;14206;50.202;10.948;2022-09-14T13:35:04;3.80;;;3.50;;
26540;SDS011;14206;50.202;10.948;2022-09-14T13:37:33;3.83;;;3.50;;
26540;SDS011;14206;50.202;10.948;2022-09-14T13:40:03;6.00;;;3.25;;
26540;SDS011;14206;50.202;10.948;2022-09-14T13:42:32;3.60;;;3.05;;
26540;SDS011;14206;50.202;10.948;2022-09-14T13:44:59;3.85;;;3.55;;
26540;SDS011;14206;50.202;10.948;2022-09-14T13:47:26;3.85;;;3.40;;
26540;SDS011;14206;50.202;10.948;2022-09-14T13:49:54;4.40;;;3.50;;
26540;SDS011;14206;50.202;10.948;2022-09-14T13:55:13;3.60;;;3.30;;
26540;SDS011;14206;50.202;10.948;2022-09-14T13:58:09;4.07;;;3.72;;
26540;SDS011;14206;50.202;10.948;2022-09-14T14:06:25;4.30;;;3.10;;
26540;SDS011;14206;50.202;10.948;2022-09-14T14:09:02;3.90;;;3.60;;
26540;SDS011;14206;50.202;10.948;2022-09-14T14:11:42;4.10;;;3.75;;
26540;SDS011;14206;50.202;10.948;2022-09-14T14:19:49;3.78;;;3.28;;
26540;SDS011;14206;50.202;10.948;2022-09-14T14:22:20;2.95;;;2.75;;
26540;SDS011;14206;50.202;10.948;2022-09-14T14:24:58;3.05;;;2.28;;
26540;SDS011;14206;50.202;10.948;2022-09-14T14:27:42;2.88;;;2.60;;
26540;SDS011;14206;50.202;10.948;2022-09-14T14:30:16;3.47;;;2.83;;
26540;SDS011;14206;50.202;10.948;2022-09-14T14:32:50;4.85;;;3.08;;
26540;SDS011;14206;50.202;10.948;2022-09-14T14:35:19;3.10;;;2.80;;
26540;SDS011;14206;50.202;10.948;2022-09-14T14:37:51;2.60;;;2.40;;
26540;SDS011;14206;50.202;10.948;2022-09-14T14:40:18;2.70;;;2.50;;
26540;SDS011;14206;50.202;10.948;2022-09-14T14:42:46;2.45;;;2.25;;
26540;SDS011;14206;50.202;10.948;2022-09-14T14:45:15;2.45;;;2.20;;
26540;SDS011;14206;50.202;10.948;2022-09-14T14:47:44;2.45;;;2.25;;
26540;SDS011;14206;50.202;10.948;2022-09-14T14:50:16;2.42;;;2.22;;
26540;SDS011;14206;50.202;10.948;2022-09-14T14:52:45;1.92;;;1.83;;
26540;SDS011;14206;50.202;10.948;2022-09-14T14:55:12;2.60;;;2.40;;
26540;SDS011;14206;50.202;10.948;2022-09-14T14:57:40;3.80;;;3.40;;
26540;SDS011;14206;50.202;10.948;2022-09-14T15:00:11;3.90;;;3.58;;
26540;SDS011;14206;50.202;10.948;2022-09-14T15:02:40;3.10;;;2.80;;
26540;SDS011;14206;50.202;10.948;2022-09-14T15:05:08;3.70;;;3.40;;
26540;SDS011;14206;50.202;10.948;2022-09-14T15:07:35;3.20;;;2.95;;
26540;SDS011;14206;50.202;10.948;2022-09-14T15:10:03;3.63;;;3.33;;
26540;SDS011;14206;50.202;10.948;2022-09-14T15:12:31;3.28;;;2.97;;
26540;SDS011;14206;50.202;10.948;2022-09-14T15:14:59;3.65;;;3.35;;
26540;SDS011;14206;50.202;10.948;2022-09-14T15:17:26;3.45;;;3.22;;
26540;SDS011;14206;50.202;10.948;2022-09-14T15:19:53;3.25;;;2.95;;
26540;SDS011;14206;50.202;10.948;2022-09-14T15:22:20;3.35;;;3.05;;
26540;SDS011;14206;50.202;10.948;2022-09-14T15:24:47;3.70;;;3.40;;
26540;SDS011;14206;50.202;10.948;2022-09-14T15:27:13;3.40;;;3.10;;
26540;SDS011;14206;50.202;10.948;2022-09-14T15:29:40;3.58;;;3.28;;
26540;SDS011;14206;50.202;10.948;2022-09-14T15:32:07;3.50;;;3.20;;
26540;SDS011;14206;50.202;10.948;2022-09-14T15:34:34;3.60;;;3.30;;
26540;SDS011;14206;50.202;10.948;2022-09-14T15:37:01;3.10;;;2.90;;
26540;SDS011;14206;50.202;10.948;2022-09-14T15:39:28;2.60;;;2.40;;
26540;SDS011;14206;50.202;10.948;2022-09-14T15:41:56;2.90;;;2.70;;
26540;SDS011;14206;50.202;10.948;2022-09-14T15:44:24;2.72;;;2.53;;
26540;SDS011;14206;50.202;10.948;2022-09-14T15:46:51;2.78;;;2.53;;
26540;SDS011;14206;50.202;10.948;2022-09-14T15:49:22;2.50;;;2.30;;
26540;SDS011;14206;50.202;10.948;2022-09-14T15:51:50;2.80;;;2.60;;
26540;SDS011;14206;50.202;10.948;2022-09-14T15:54:19;2.70;;;2.50;;
26540;SDS011;14206;50.202;10.948;2022-09-14T15:56:51;2.63;;;2.42;;
26540;SDS011;14206;50.202;10.948;2022-09-14T15:59:20;3.40;;;2.97;;
26540;SDS011;14206;50.202;10.948;2022-09-14T16:01:47;2.75;;;2.55;;
26540;SDS011;14206;50.202;10.948;2022-09-14T16:04:14;2.90;;;2.60;;
26540;SDS011;14206;50.202;10.948;2022-09-14T16:06:41;2.83;;;2.63;;
26540;SDS011;14206;50.202;10.948;2022-09-14T16:09:09;2.88;;;2.67;;
26540;SDS011;14206;50.202;10.948;2022-09-14T16:11:37;2.40;;;2.20;;
26540;SDS011;14206;50.202;10.948;2022-09-14T16:14:05;2.45;;;2.25;;
26540;SDS011;14206;50.202;10.948;2022-09-14T16:16:33;2.60;;;2.40;;
26540;SDS011;14206;50.202;10.948;2022-09-14T16:19:05;2.65;;;2.30;;
26540;SDS011;14206;50.202;10.948;2022-09-14T16:21:34;2.75;;;2.53;;
26540;SDS011;14206;50.202;10.948;2022-09-14T16:24:01;3.25;;;2.97;;
26540;SDS011;14206;50.202;10.948;2022-09-14T16:26:31;2.75;;;2.55;;
26540;SDS011;14206;50.202;10.948;2022-09-14T16:29:00;2.80;;;2.55;;
26540;SDS011;14206;50.202;10.948;2022-09-14T16:31:29;2.80;;;2.60;;
26540;SDS011;14206;50.202;10.948;2022-09-14T16:34:00;2.67;;;2.47;;
26540;SDS011;14206;50.202;10.948;2022-09-14T16:36:32;2.60;;;2.40;;
26540;SDS011;14206;50.202;10.948;2022-09-14T16:39:02;2.65;;;2.45;;
26540;SDS011;14206;50.202;10.948;2022-09-14T16:41:31;2.70;;;2.50;;
26540;SDS011;14206;50.202;10.948;2022-09-14T16:43:59;2.72;;;2.53;;
26540;SDS011;14206;50.202;10.948;2022-09-14T16:46:27;3.13;;;2.60;;
26540;SDS011;14206;50.202;10.948;2022-09-14T16:48:55;2.50;;;2.30;;
26540;SDS011;14206;50.202;10.948;2022-09-14T16:51:24;3.25;;;2.90;;
26540;SDS011;14206;50.202;10.948;2022-09-14T16:53:52;4.90;;;4.40;;
26540;SDS011;14206;50.202;10.948;2022-09-14T16:56:23;5.47;;;4.85;;
26540;SDS011;14206;50.202;10.948;2022-09-14T16:58:52;4.47;;;3.70;;
26540;SDS011;14206;50.202;10.948;2022-09-14T17:01:21;5.78;;;5.20;;
26540;SDS011;14206;50.202;10.948;2022-09-14T17:03:58;5.13;;;4.63;;
26540;SDS011;14206;50.202;10.948;2022-09-14T17:06:27;5.60;;;5.10;;
26540;SDS011;14206;50.202;10.948;2022-09-14T17:08:57;5.85;;;5.25;;
26540;SDS011;14206;50.202;10.948;2022-09-14T17:11:32;3.97;;;3.65;;
26540;SDS011;14206;50.202;10.948;2022-09-14T17:14:00;3.45;;;3.15;;
26540;SDS011;14206;50.202;10.948;2022-09-14T17:16:27;3.70;;;3.28;;
26540;SDS011;14206;50.202;10.948;2022-09-14T17:18:56;4.18;;;3.25;;
26540;SDS011;14206;50.202;10.948;2022-09-14T17:21:26;3.30;;;3.00;;
26540;SDS011;14206;50.202;10.948;2022-09-14T17:23:58;3.33;;;3.03;;
26540;SDS011;14206;50.202;10.948;2022-09-14T17:26:26;3.53;;;3.22;;
26540;SDS011;14206;50.202;10.948;2022-09-14T17:28:53;4.43;;;4.03;;
26540;SDS011;14206;50.202;10.948;2022-09-14T17:31:23;5.00;;;4.15;;
26540;SDS011;14206;50.202;10.948;2022-09-14T17:33:51;3.53;;;3.20;;
26540;SDS011;14206;50.202;10.948;2022-09-14T17:36:20;4.50;;;4.10;;
26540;SDS011;14206;50.202;10.948;2022-09-14T17:38:47;4.88;;;4.38;;
26540;SDS011;14206;50.202;10.948;2022-09-14T17:41:16;4.57;;;4.10;;
26540;SDS011;14206;50.202;10.948;2022-09-14T17:43:48;5.30;;;4.80;;